sensor_id;sensor_type;location;lat;lon;timestamp;P1;durP1;ratioP1;P2;durP2;ratioP2
75912;SDS011;64592;52.168;21.040;2023-05-28T00:01:45;8.13;;;3.70;;
75912;SDS011;64592;52.168;21.040;2023-05-28T00:06:48;6.43;;;3.65;;
75912;SDS011;64592;52.168;21.040;2023-05-28T00:11:50;8.00;;;3.58;;
75912;SDS011;64592;52.168;21.040;2023-05-28T00:16:53;7.25;;;3.58;;
75912;SDS011;64592;52.168;21.040;2023-05-28T00:21:56;6.00;;;2.83;;
75912;SDS011;64592;52.168;21.040;2023-05-28T00:26:58;6.47;;;3.28;;
75912;SDS011;64592;52.168;21.040;2023-05-28T00:32:00;6.97;;;3.78;;
75912;SDS011;64592;52.168;21.040;2023-05-28T00:37:04;6.93;;;2.90;;
75912;SDS011;64592;52.168;21.040;2023-05-28T00:42:06;6.20;;;3.35;;
75912;SDS011;64592;52.168;21.040;2023-05-28T00:47:10;5.07;;;2.85;;
75912;SDS011;64592;52.168;21.040;2023-05-28T00:52:14;5.35;;;2.97;;
75912;SDS011;64592;52.168;21.040;2023-05-28T00:57:17;5.03;;;2.72;;
75912;SDS011;64592;52.168;21.040;2023-05-28T01:02:23;5.85;;;2.97;;
75912;SDS011;64592;52.168;21.040;2023-05-28T01:07:29;6.43;;;3.30;;
75912;SDS011;64592;52.168;21.040;2023-05-28T01:12:33;4.85;;;2.78;;
75912;SDS011;64592;52.168;21.040;2023-05-28T01:17:36;7.15;;;3.33;;
75912;SDS011;64592;52.168;21.040;2023-05-28T01:22:47;4.70;;;2.90;;
75912;SDS011;64592;52.168;21.040;2023-05-28T01:27:57;6.55;;;3.20;;
75912;SDS011;64592;52.168;21.040;2023-05-28T01:33:01;6.88;;;3.40;;
75912;SDS011;64592;52.168;21.040;2023-05-28T01:38:03;8.00;;;3.20;;
75912;SDS011;64592;52.168;21.040;2023-05-28T01:43:07;7.60;;;3.28;;
75912;SDS011;64592;52.168;21.040;2023-05-28T01:48:10;5.40;;;2.88;;
75912;SDS011;64592;52.168;21.040;2023-05-28T01:53:14;7.35;;;3.00;;
75912;SDS011;64592;52.168;21.040;2023-05-28T01:58:18;5.93;;;3.00;;
75912;SDS011;64592;52.168;21.040;2023-05-28T02:03:20;7.85;;;3.40;;
75912;SDS011;64592;52.168;21.040;2023-05-28T02:08:24;6.25;;;3.40;;
75912;SDS011;64592;52.168;21.040;2023-05-28T02:13:27;5.82;;;3.53;;
75912;SDS011;64592;52.168;21.040;2023-05-28T02:18:30;10.20;;;4.20;;
75912;SDS011;64592;52.168;21.040;2023-05-28T02:23:32;7.28;;;4.28;;
75912;SDS011;64592;52.168;21.040;2023-05-28T02:28:35;8.73;;;3.90;;
75912;SDS011;64592;52.168;21.040;2023-05-28T02:33:37;6.32;;;3.72;;
75912;SDS011;64592;52.168;21.040;2023-05-28T02:38:41;6.50;;;3.40;;
75912;SDS011;64592;52.168;21.040;2023-05-28T02:43:47;6.80;;;3.75;;
75912;SDS011;64592;52.168;21.040;2023-05-28T02:48:49;9.70;;;4.32;;
75912;SDS011;64592;52.168;21.040;2023-05-28T02:53:52;8.77;;;4.25;;
75912;SDS011;64592;52.168;21.040;2023-05-28T02:58:55;6.82;;;3.75;;
75912;SDS011;64592;52.168;21.040;2023-05-28T03:03:57;5.72;;;3.88;;
75912;SDS011;64592;52.168;21.040;2023-05-28T03:08:59;6.68;;;4.00;;
75912;SDS011;64592;52.168;21.040;2023-05-28T03:14:02;11.02;;;4.18;;
75912;SDS011;64592;52.168;21.040;2023-05-28T03:19:05;6.20;;;3.80;;
75912;SDS011;64592;52.168;21.040;2023-05-28T03:24:07;6.97;;;3.28;;
75912;SDS011;64592;52.168;21.040;2023-05-28T03:29:12;8.77;;;3.47;;
75912;SDS011;64592;52.168;21.040;2023-05-28T03:34:14;6.93;;;3.65;;
75912;SDS011;64592;52.168;21.040;2023-05-28T03:39:15;8.02;;;3.53;;
75912;SDS011;64592;52.168;21.040;2023-05-28T03:44:21;8.77;;;3.70;;
75912;SDS011;64592;52.168;21.040;2023-05-28T03:49:23;5.47;;;3.53;;
75912;SDS011;64592;52.168;21.040;2023-05-28T03:54:25;8.98;;;3.50;;
75912;SDS011;64592;52.168;21.040;2023-05-28T03:59:28;6.03;;;2.85;;
75912;SDS011;64592;52.168;21.040;2023-05-28T04:04:30;6.03;;;3.20;;
75912;SDS011;64592;52.168;21.040;2023-05-28T04:09:34;4.32;;;2.90;;
75912;SDS011;64592;52.168;21.040;2023-05-28T04:14:38;7.30;;;3.38;;
75912;SDS011;64592;52.168;21.040;2023-05-28T04:19:41;5.70;;;2.70;;
75912;SDS011;64592;52.168;21.040;2023-05-28T04:24:42;6.90;;;2.60;;
75912;SDS011;64592;52.168;21.040;2023-05-28T04:29:47;6.53;;;2.80;;
75912;SDS011;64592;52.168;21.040;2023-05-28T04:34:52;6.13;;;2.83;;
75912;SDS011;64592;52.168;21.040;2023-05-28T04:39:55;4.95;;;2.80;;
75912;SDS011;64592;52.168;21.040;2023-05-28T04:44:58;5.80;;;2.45;;
75912;SDS011;64592;52.168;21.040;2023-05-28T04:50:00;4.20;;;2.15;;
75912;SDS011;64592;52.168;21.040;2023-05-28T04:55:05;6.25;;;3.20;;
75912;SDS011;64592;52.168;21.040;2023-05-28T05:00:09;5.43;;;2.40;;
75912;SDS011;64592;52.168;21.040;2023-05-28T05:05:13;4.00;;;2.55;;
75912;SDS011;64592;52.168;21.040;2023-05-28T05:10:16;5.97;;;2.63;;
75912;SDS011;64592;52.168;21.040;2023-05-28T05:15:22;3.85;;;2.10;;
75912;SDS011;64592;52.168;21.040;2023-05-28T05:20:25;4.63;;;2.20;;
75912;SDS011;64592;52.168;21.040;2023-05-28T05:25:28;4.22;;;2.72;;
75912;SDS011;64592;52.168;21.040;2023-05-28T05:30:31;5.60;;;2.58;;
75912;SDS011;64592;52.168;21.040;2023-05-28T05:35:32;9.38;;;2.50;;
75912;SDS011;64592;52.168;21.040;2023-05-28T05:40:34;6.90;;;2.30;;
75912;SDS011;64592;52.168;21.040;2023-05-28T05:45:37;5.32;;;3.00;;
75912;SDS011;64592;52.168;21.040;2023-05-28T05:50:49;3.67;;;2.30;;
75912;SDS011;64592;52.168;21.040;2023-05-28T05:55:55;4.13;;;2.47;;
75912;SDS011;64592;52.168;21.040;2023-05-28T06:01:01;4.05;;;2.10;;
75912;SDS011;64592;52.168;21.040;2023-05-28T06:06:03;4.63;;;2.60;;
75912;SDS011;64592;52.168;21.040;2023-05-28T06:11:07;6.38;;;1.90;;
75912;SDS011;64592;52.168;21.040;2023-05-28T06:16:10;4.20;;;2.15;;
75912;SDS011;64592;52.168;21.040;2023-05-28T06:21:12;4.13;;;2.20;;
75912;SDS011;64592;52.168;21.040;2023-05-28T06:26:14;3.33;;;1.83;;
75912;SDS011;64592;52.168;21.040;2023-05-28T06:31:17;7.03;;;2.05;;
75912;SDS011;64592;52.168;21.040;2023-05-28T06:36:19;4.50;;;2.08;;
75912;SDS011;64592;52.168;21.040;2023-05-28T06:41:22;3.30;;;1.67;;
75912;SDS011;64592;52.168;21.040;2023-05-28T06:46:26;3.08;;;1.60;;
75912;SDS011;64592;52.168;21.040;2023-05-28T06:51:29;4.35;;;1.70;;
75912;SDS011;64592;52.168;21.040;2023-05-28T06:56:31;5.70;;;2.38;;
75912;SDS011;64592;52.168;21.040;2023-05-28T07:01:37;6.93;;;2.17;;
75912;SDS011;64592;52.168;21.040;2023-05-28T07:06:42;4.00;;;1.83;;
75912;SDS011;64592;52.168;21.040;2023-05-28T07:11:46;5.00;;;1.50;;
75912;SDS011;64592;52.168;21.040;2023-05-28T07:16:51;8.68;;;2.22;;
75912;SDS011;64592;52.168;21.040;2023-05-28T07:21:52;2.17;;;1.33;;
75912;SDS011;64592;52.168;21.040;2023-05-28T07:26:56;10.20;;;2.38;;
75912;SDS011;64592;52.168;21.040;2023-05-28T07:31:59;3.38;;;1.48;;
75912;SDS011;64592;52.168;21.040;2023-05-28T07:37:01;2.88;;;1.58;;
75912;SDS011;64592;52.168;21.040;2023-05-28T07:42:03;4.05;;;1.40;;
75912;SDS011;64592;52.168;21.040;2023-05-28T07:47:07;4.90;;;1.67;;
75912;SDS011;64592;52.168;21.040;2023-05-28T07:52:09;3.10;;;1.42;;
75912;SDS011;64592;52.168;21.040;2023-05-28T07:57:12;4.50;;;1.70;;
75912;SDS011;64592;52.168;21.040;2023-05-28T08:02:16;3.03;;;2.08;;
75912;SDS011;64592;52.168;21.040;2023-05-28T08:07:17;2.85;;;1.38;;
75912;SDS011;64592;52.168;21.040;2023-05-28T08:12:19;6.00;;;1.95;;
75912;SDS011;64592;52.168;21.040;2023-05-28T08:17:24;3.00;;;1.58;;
75912;SDS011;64592;52.168;21.040;2023-05-28T08:22:26;3.08;;;1.77;;
75912;SDS011;64592;52.168;21.040;2023-05-28T08:27:28;6.50;;;1.67;;
75912;SDS011;64592;52.168;21.040;2023-05-28T08:32:31;4.97;;;1.63;;
75912;SDS011;64592;52.168;21.040;2023-05-28T08:37:33;3.55;;;1.70;;
75912;SDS011;64592;52.168;21.040;2023-05-28T08:42:35;3.55;;;1.95;;
75912;SDS011;64592;52.168;21.040;2023-05-28T08:47:41;4.57;;;1.60;;
75912;SDS011;64592;52.168;21.040;2023-05-28T08:52:46;5.20;;;2.22;;
75912;SDS011;64592;52.168;21.040;2023-05-28T08:57:49;2.50;;;1.60;;
75912;SDS011;64592;52.168;21.040;2023-05-28T09:02:55;2.35;;;1.33;;
75912;SDS011;64592;52.168;21.040;2023-05-28T09:07:57;3.38;;;1.65;;
75912;SDS011;64592;52.168;21.040;2023-05-28T09:12:58;4.43;;;1.77;;
75912;SDS011;64592;52.168;21.040;2023-05-28T09:18:06;4.65;;;1.67;;
75912;SDS011;64592;52.168;21.040;2023-05-28T09:23:08;6.22;;;1.92;;
75912;SDS011;64592;52.168;21.040;2023-05-28T09:28:10;3.50;;;1.70;;
75912;SDS011;64592;52.168;21.040;2023-05-28T09:33:14;3.00;;;1.70;;
75912;SDS011;64592;52.168;21.040;2023-05-28T09:38:19;3.55;;;1.90;;
75912;SDS011;64592;52.168;21.040;2023-05-28T09:43:26;3.70;;;1.70;;
75912;SDS011;64592;52.168;21.040;2023-05-28T09:48:31;2.45;;;1.60;;
75912;SDS011;64592;52.168;21.040;2023-05-28T09:53:32;3.17;;;1.65;;
75912;SDS011;64592;52.168;21.040;2023-05-28T09:58:39;4.97;;;2.53;;
75912;SDS011;64592;52.168;21.040;2023-05-28T10:03:48;4.65;;;1.80;;
75912;SDS011;64592;52.168;21.040;2023-05-28T10:08:54;7.60;;;1.60;;
75912;SDS011;64592;52.168;21.040;2023-05-28T10:13:58;5.32;;;1.70;;
75912;SDS011;64592;52.168;21.040;2023-05-28T10:19:03;2.72;;;1.60;;
75912;SDS011;64592;52.168;21.040;2023-05-28T10:24:05;4.35;;;1.50;;
75912;SDS011;64592;52.168;21.040;2023-05-28T10:29:07;3.47;;;1.42;;
75912;SDS011;64592;52.168;21.040;2023-05-28T10:34:15;5.70;;;1.60;;
75912;SDS011;64592;52.168;21.040;2023-05-28T10:39:17;2.92;;;1.10;;
75912;SDS011;64592;52.168;21.040;2023-05-28T10:44:19;3.90;;;1.75;;
75912;SDS011;64592;52.168;21.040;2023-05-28T10:49:22;2.17;;;1.70;;
75912;SDS011;64592;52.168;21.040;2023-05-28T10:54:39;5.90;;;1.80;;
75912;SDS011;64592;52.168;21.040;2023-05-28T10:59:46;3.45;;;1.80;;
75912;SDS011;64592;52.168;21.040;2023-05-28T11:04:54;2.47;;;1.65;;
75912;SDS011;64592;52.168;21.040;2023-05-28T11:09:57;3.97;;;1.58;;
75912;SDS011;64592;52.168;21.040;2023-05-28T11:15:05;5.72;;;2.40;;
75912;SDS011;64592;52.168;21.040;2023-05-28T11:20:15;3.75;;;1.88;;
75912;SDS011;64592;52.168;21.040;2023-05-28T11:25:18;2.65;;;2.03;;
75912;SDS011;64592;52.168;21.040;2023-05-28T11:30:23;4.00;;;1.70;;
75912;SDS011;64592;52.168;21.040;2023-05-28T11:35:29;3.90;;;1.55;;
75912;SDS011;64592;52.168;21.040;2023-05-28T11:40:32;4.10;;;1.88;;
75912;SDS011;64592;52.168;21.040;2023-05-28T11:45:35;2.28;;;1.35;;
75912;SDS011;64592;52.168;21.040;2023-05-28T11:50:39;1.90;;;1.30;;
75912;SDS011;64592;52.168;21.040;2023-05-28T11:55:43;2.50;;;1.52;;
75912;SDS011;64592;52.168;21.040;2023-05-28T12:00:44;2.58;;;1.17;;
75912;SDS011;64592;52.168;21.040;2023-05-28T12:05:49;3.92;;;1.75;;
75912;SDS011;64592;52.168;21.040;2023-05-28T12:10:51;4.90;;;1.70;;
75912;SDS011;64592;52.168;21.040;2023-05-28T12:16:04;5.55;;;2.00;;
75912;SDS011;64592;52.168;21.040;2023-05-28T12:21:12;4.20;;;1.73;;
75912;SDS011;64592;52.168;21.040;2023-05-28T12:26:20;4.57;;;1.80;;
75912;SDS011;64592;52.168;21.040;2023-05-28T12:31:26;3.10;;;1.65;;
75912;SDS011;64592;52.168;21.040;2023-05-28T12:36:31;3.42;;;1.77;;
75912;SDS011;64592;52.168;21.040;2023-05-28T12:41:34;6.85;;;1.55;;
75912;SDS011;64592;52.168;21.040;2023-05-28T12:46:36;4.63;;;1.73;;
75912;SDS011;64592;52.168;21.040;2023-05-28T12:51:42;7.15;;;2.03;;
75912;SDS011;64592;52.168;21.040;2023-05-28T12:56:46;2.58;;;1.35;;
75912;SDS011;64592;52.168;21.040;2023-05-28T13:01:47;3.75;;;1.60;;
75912;SDS011;64592;52.168;21.040;2023-05-28T13:06:50;3.58;;;1.70;;
75912;SDS011;64592;52.168;21.040;2023-05-28T13:11:52;4.70;;;1.60;;
75912;SDS011;64592;52.168;21.040;2023-05-28T13:16:55;2.13;;;1.40;;
75912;SDS011;64592;52.168;21.040;2023-05-28T13:21:59;5.53;;;1.63;;
75912;SDS011;64592;52.168;21.040;2023-05-28T13:27:01;6.70;;;1.60;;
75912;SDS011;64592;52.168;21.040;2023-05-28T13:32:06;2.75;;;1.55;;
75912;SDS011;64592;52.168;21.040;2023-05-28T13:37:17;2.92;;;1.60;;
75912;SDS011;64592;52.168;21.040;2023-05-28T13:42:19;4.85;;;1.80;;
75912;SDS011;64592;52.168;21.040;2023-05-28T13:47:21;3.63;;;1.50;;
75912;SDS011;64592;52.168;21.040;2023-05-28T13:52:24;3.60;;;1.70;;
75912;SDS011;64592;52.168;21.040;2023-05-28T13:57:26;2.65;;;1.75;;
75912;SDS011;64592;52.168;21.040;2023-05-28T14:02:27;2.67;;;1.48;;
75912;SDS011;64592;52.168;21.040;2023-05-28T14:07:31;4.28;;;1.42;;
75912;SDS011;64592;52.168;21.040;2023-05-28T14:12:33;5.22;;;1.80;;
75912;SDS011;64592;52.168;21.040;2023-05-28T14:17:35;3.47;;;1.40;;
75912;SDS011;64592;52.168;21.040;2023-05-28T14:22:40;3.70;;;1.50;;
75912;SDS011;64592;52.168;21.040;2023-05-28T14:27:42;2.70;;;1.80;;
75912;SDS011;64592;52.168;21.040;2023-05-28T14:32:46;5.00;;;1.90;;
75912;SDS011;64592;52.168;21.040;2023-05-28T14:37:51;9.63;;;1.65;;
75912;SDS011;64592;52.168;21.040;2023-05-28T14:42:53;5.40;;;1.70;;
75912;SDS011;64592;52.168;21.040;2023-05-28T14:47:54;6.55;;;1.45;;
75912;SDS011;64592;52.168;21.040;2023-05-28T14:52:57;2.65;;;1.60;;
75912;SDS011;64592;52.168;21.040;2023-05-28T14:58:01;4.18;;;1.70;;
75912;SDS011;64592;52.168;21.040;2023-05-28T15:03:03;3.08;;;1.85;;
75912;SDS011;64592;52.168;21.040;2023-05-28T15:08:06;3.83;;;1.77;;
75912;SDS011;64592;52.168;21.040;2023-05-28T15:13:08;3.15;;;2.05;;
75912;SDS011;64592;52.168;21.040;2023-05-28T15:18:09;4.80;;;1.95;;
75912;SDS011;64592;52.168;21.040;2023-05-28T15:23:13;4.47;;;1.80;;
75912;SDS011;64592;52.168;21.040;2023-05-28T15:28:16;3.17;;;1.60;;
75912;SDS011;64592;52.168;21.040;2023-05-28T15:33:18;3.22;;;1.88;;
75912;SDS011;64592;52.168;21.040;2023-05-28T15:38:22;2.65;;;1.80;;
75912;SDS011;64592;52.168;21.040;2023-05-28T15:43:24;4.13;;;1.60;;
75912;SDS011;64592;52.168;21.040;2023-05-28T15:48:26;3.45;;;1.73;;
75912;SDS011;64592;52.168;21.040;2023-05-28T15:53:29;2.38;;;1.45;;
75912;SDS011;64592;52.168;21.040;2023-05-28T15:58:32;4.97;;;1.73;;
75912;SDS011;64592;52.168;21.040;2023-05-28T16:03:35;2.33;;;1.50;;
75912;SDS011;64592;52.168;21.040;2023-05-28T16:08:42;4.75;;;1.50;;
75912;SDS011;64592;52.168;21.040;2023-05-28T16:13:44;3.17;;;1.60;;
75912;SDS011;64592;52.168;21.040;2023-05-28T16:18:47;4.38;;;1.63;;
75912;SDS011;64592;52.168;21.040;2023-05-28T16:23:51;5.22;;;1.80;;
75912;SDS011;64592;52.168;21.040;2023-05-28T16:28:54;4.13;;;2.00;;
75912;SDS011;64592;52.168;21.040;2023-05-28T16:33:56;3.75;;;2.00;;
75912;SDS011;64592;52.168;21.040;2023-05-28T16:39:00;6.75;;;1.70;;
75912;SDS011;64592;52.168;21.040;2023-05-28T16:44:06;4.32;;;1.80;;
75912;SDS011;64592;52.168;21.040;2023-05-28T16:49:08;3.13;;;1.70;;
75912;SDS011;64592;52.168;21.040;2023-05-28T16:54:14;4.75;;;1.83;;
75912;SDS011;64592;52.168;21.040;2023-05-28T16:59:18;4.47;;;1.73;;
75912;SDS011;64592;52.168;21.040;2023-05-28T17:04:21;2.25;;;1.50;;
75912;SDS011;64592;52.168;21.040;2023-05-28T17:09:24;8.25;;;1.65;;
75912;SDS011;64592;52.168;21.040;2023-05-28T17:14:26;3.85;;;1.95;;
75912;SDS011;64592;52.168;21.040;2023-05-28T17:19:30;7.70;;;2.35;;
75912;SDS011;64592;52.168;21.040;2023-05-28T17:24:35;3.25;;;1.88;;
75912;SDS011;64592;52.168;21.040;2023-05-28T17:29:37;2.97;;;2.25;;
75912;SDS011;64592;52.168;21.040;2023-05-28T17:34:38;5.60;;;2.03;;
75912;SDS011;64592;52.168;21.040;2023-05-28T17:39:45;4.88;;;1.85;;
75912;SDS011;64592;52.168;21.040;2023-05-28T17:44:47;7.65;;;2.13;;
75912;SDS011;64592;52.168;21.040;2023-05-28T17:49:49;5.93;;;2.15;;
75912;SDS011;64592;52.168;21.040;2023-05-28T17:54:52;4.57;;;1.85;;
75912;SDS011;64592;52.168;21.040;2023-05-28T17:59:58;6.10;;;1.75;;
75912;SDS011;64592;52.168;21.040;2023-05-28T18:05:00;3.95;;;1.80;;
75912;SDS011;64592;52.168;21.040;2023-05-28T18:10:04;3.05;;;1.90;;
75912;SDS011;64592;52.168;21.040;2023-05-28T18:15:06;2.67;;;1.60;;
75912;SDS011;64592;52.168;21.040;2023-05-28T18:20:10;3.75;;;1.70;;
75912;SDS011;64592;52.168;21.040;2023-05-28T18:25:14;4.55;;;1.80;;
75912;SDS011;64592;52.168;21.040;2023-05-28T18:30:17;4.85;;;1.98;;
75912;SDS011;64592;52.168;21.040;2023-05-28T18:35:18;5.80;;;1.90;;
75912;SDS011;64592;52.168;21.040;2023-05-28T18:40:22;4.68;;;1.90;;
75912;SDS011;64592;52.168;21.040;2023-05-28T18:45:24;5.07;;;1.90;;
75912;SDS011;64592;52.168;21.040;2023-05-28T18:50:25;5.45;;;2.20;;
75912;SDS011;64592;52.168;21.040;2023-05-28T18:55:29;4.18;;;2.03;;
75912;SDS011;64592;52.168;21.040;2023-05-28T19:00:32;4.18;;;2.10;;
75912;SDS011;64592;52.168;21.040;2023-05-28T19:05:34;4.30;;;2.45;;
75912;SDS011;64592;52.168;21.040;2023-05-28T19:10:37;10.63;;;3.05;;
75912;SDS011;64592;52.168;21.040;2023-05-28T19:15:39;13.02;;;3.20;;
75912;SDS011;64592;52.168;21.040;2023-05-28T19:20:45;6.97;;;3.10;;
75912;SDS011;64592;52.168;21.040;2023-05-28T19:25:48;12.32;;;3.00;;
75912;SDS011;64592;52.168;21.040;2023-05-28T19:30:50;9.80;;;3.35;;
75912;SDS011;64592;52.168;21.040;2023-05-28T19:35:53;10.15;;;4.20;;
75912;SDS011;64592;52.168;21.040;2023-05-28T19:40:56;9.45;;;3.65;;
75912;SDS011;64592;52.168;21.040;2023-05-28T19:45:59;9.50;;;3.05;;
75912;SDS011;64592;52.168;21.040;2023-05-28T19:51:01;9.50;;;3.78;;
75912;SDS011;64592;52.168;21.040;2023-05-28T19:56:06;6.80;;;2.90;;
75912;SDS011;64592;52.168;21.040;2023-05-28T20:01:07;6.03;;;2.65;;
75912;SDS011;64592;52.168;21.040;2023-05-28T20:06:09;12.20;;;2.80;;
75912;SDS011;64592;52.168;21.040;2023-05-28T20:11:12;11.68;;;3.75;;
75912;SDS011;64592;52.168;21.040;2023-05-28T20:16:14;10.90;;;3.20;;
75912;SDS011;64592;52.168;21.040;2023-05-28T20:21:17;7.72;;;3.13;;
75912;SDS011;64592;52.168;21.040;2023-05-28T20:26:22;10.73;;;3.30;;
75912;SDS011;64592;52.168;21.040;2023-05-28T20:31:25;6.32;;;2.80;;
75912;SDS011;64592;52.168;21.040;2023-05-28T20:36:27;4.57;;;2.55;;
75912;SDS011;64592;52.168;21.040;2023-05-28T20:41:31;6.72;;;3.33;;
75912;SDS011;64592;52.168;21.040;2023-05-28T20:46:33;7.90;;;3.22;;
75912;SDS011;64592;52.168;21.040;2023-05-28T20:51:35;10.52;;;3.00;;
75912;SDS011;64592;52.168;21.040;2023-05-28T20:56:40;8.57;;;4.15;;
75912;SDS011;64592;52.168;21.040;2023-05-28T21:01:45;7.22;;;3.40;;
75912;SDS011;64592;52.168;21.040;2023-05-28T21:06:47;6.82;;;3.15;;
75912;SDS011;64592;52.168;21.040;2023-05-28T21:11:52;6.10;;;2.97;;
75912;SDS011;64592;52.168;21.040;2023-05-28T21:16:58;6.78;;;3.15;;
75912;SDS011;64592;52.168;21.040;2023-05-28T21:22:01;6.47;;;3.30;;
75912;SDS011;64592;52.168;21.040;2023-05-28T21:27:04;7.50;;;3.88;;
75912;SDS011;64592;52.168;21.040;2023-05-28T21:32:07;9.90;;;3.42;;
75912;SDS011;64592;52.168;21.040;2023-05-28T21:37:10;9.27;;;3.65;;
75912;SDS011;64592;52.168;21.040;2023-05-28T21:42:15;9.82;;;3.13;;
75912;SDS011;64592;52.168;21.040;2023-05-28T21:47:17;7.75;;;3.05;;
75912;SDS011;64592;52.168;21.040;2023-05-28T21:52:20;5.05;;;3.40;;
75912;SDS011;64592;52.168;21.040;2023-05-28T21:57:26;8.63;;;3.17;;
75912;SDS011;64592;52.168;21.040;2023-05-28T22:02:28;9.05;;;3.92;;
75912;SDS011;64592;52.168;21.040;2023-05-28T22:07:29;7.88;;;4.07;;
75912;SDS011;64592;52.168;21.040;2023-05-28T22:12:32;9.25;;;4.55;;
75912;SDS011;64592;52.168;21.040;2023-05-28T22:17:37;5.55;;;3.58;;
75912;SDS011;64592;52.168;21.040;2023-05-28T22:22:41;7.00;;;3.25;;
75912;SDS011;64592;52.168;21.040;2023-05-28T22:27:46;5.25;;;3.60;;
75912;SDS011;64592;52.168;21.040;2023-05-28T22:32:48;10.68;;;3.60;;
75912;SDS011;64592;52.168;21.040;2023-05-28T22:37:50;7.75;;;3.67;;
75912;SDS011;64592;52.168;21.040;2023-05-28T22:42:54;6.32;;;3.88;;
75912;SDS011;64592;52.168;21.040;2023-05-28T22:47:56;8.02;;;3.55;;
75912;SDS011;64592;52.168;21.040;2023-05-28T22:52:58;6.78;;;4.20;;
75912;SDS011;64592;52.168;21.040;2023-05-28T22:58:02;7.45;;;3.17;;
75912;SDS011;64592;52.168;21.040;2023-05-28T23:03:06;7.30;;;3.92;;
75912;SDS011;64592;52.168;21.040;2023-05-28T23:08:10;9.45;;;3.85;;
75912;SDS011;64592;52.168;21.040;2023-05-28T23:13:13;7.68;;;4.55;;
75912;SDS011;64592;52.168;21.040;2023-05-28T23:18:16;5.28;;;3.35;;
75912;SDS011;64592;52.168;21.040;2023-05-28T23:23:18;7.13;;;4.22;;
75912;SDS011;64592;52.168;21.040;2023-05-28T23:28:22;7.82;;;3.95;;
75912;SDS011;64592;52.168;21.040;2023-05-28T23:33:26;5.95;;;3.53;;
75912;SDS011;64592;52.168;21.040;2023-05-28T23:38:28;8.02;;;4.10;;
75912;SDS011;64592;52.168;21.040;2023-05-28T23:43:31;6.78;;;4.00;;
75912;SDS011;64592;52.168;21.040;2023-05-28T23:48:33;9.05;;;3.92;;
75912;SDS011;64592;52.168;21.040;2023-05-28T23:53:34;7.65;;;3.97;;
75912;SDS011;64592;52.168;21.040;2023-05-28T23:58:38;7.00;;;4.03;;
